createdAt,value
2022-08-01T00:00:21.562Z,25.30
2022-08-01T00:04:23.294Z,25.30
2022-08-01T00:08:25.037Z,25.30
2022-08-01T00:12:26.840Z,25.50
2022-08-01T00:16:29.186Z,25.50
2022-08-01T00:20:30.921Z,25.50
2022-08-01T00:24:32.628Z,25.30
2022-08-01T00:28:36.023Z,25.20
2022-08-01T00:32:37.746Z,25.20
2022-08-01T00:36:39.604Z,25.30
2022-08-01T00:40:41.410Z,25.10
2022-08-01T00:44:43.191Z,24.90
2022-08-01T00:48:45.006Z,24.80
2022-08-01T00:52:51.217Z,24.40
2022-08-01T00:56:54.617Z,24.40
2022-08-01T01:00:56.463Z,24.70
2022-08-01T01:05:00.350Z,24.60
2022-08-01T01:09:23.707Z,24.50
2022-08-01T01:13:50.509Z,24.50
2022-08-01T01:18:03.576Z,24.30
2022-08-01T01:22:26.769Z,24.70
2022-08-01T01:26:32.821Z,24.70
2022-08-01T01:30:35.196Z,24.70
2022-08-01T01:34:43.901Z,24.80
2022-08-01T01:38:47.009Z,25.00
2022-08-01T01:42:49.872Z,24.90
2022-08-01T01:46:53.310Z,24.80
2022-08-01T01:51:00.688Z,24.60
2022-08-01T01:55:06.623Z,24.60
2022-08-01T01:59:08.394Z,24.10
2022-08-01T02:03:12.576Z,23.90
2022-08-01T02:07:20.232Z,23.70
2022-08-01T02:11:23.082Z,24.10
2022-08-01T02:15:25.918Z,24.30
2022-08-01T02:19:28.182Z,24.30
2022-08-01T02:23:34.225Z,24.60
2022-08-01T02:27:53.109Z,24.60
2022-08-01T02:31:59.012Z,23.90
2022-08-01T02:36:31.326Z,24.20
2022-08-01T02:40:29.358Z,24.00
2022-08-01T02:44:37.745Z,23.80
2022-08-01T02:48:41.160Z,23.60
2022-08-01T02:52:44.819Z,23.50
2022-08-01T02:56:49.280Z,23.70
2022-08-01T03:00:51.945Z,23.90
2022-08-01T03:04:57.204Z,24.00
2022-08-01T03:09:01.007Z,24.20
2022-08-01T03:13:05.106Z,24.40
2022-08-01T03:17:09.175Z,24.20
2022-08-01T03:21:13.045Z,24.20
2022-08-01T03:25:16.834Z,23.70
2022-08-01T03:29:23.410Z,23.40
2022-08-01T03:33:25.208Z,23.20
2022-08-01T03:37:30.671Z,23.60
2022-08-01T03:41:38.728Z,23.80
2022-08-01T03:45:46.083Z,23.90
2022-08-01T03:49:49.817Z,23.30
2022-08-01T03:53:52.386Z,23.10
2022-08-01T03:57:54.716Z,23.40
2022-08-01T04:01:57.253Z,23.40
2022-08-01T04:05:59.413Z,23.60
2022-08-01T04:10:01.383Z,23.50
2022-08-01T04:14:04.382Z,23.70
2022-08-01T04:18:11.047Z,23.70
2022-08-01T04:22:16.632Z,23.60
2022-08-01T04:26:20.874Z,23.80
2022-08-01T04:30:27.251Z,24.10
2022-08-01T04:34:31.635Z,24.20
2022-08-01T04:38:37.711Z,24.60
2022-08-01T04:42:39.961Z,24.70
2022-08-01T04:46:42.085Z,24.30
2022-08-01T04:50:43.960Z,23.90
2022-08-01T04:54:47.445Z,24.00
2022-08-01T04:59:09.923Z,24.00
2022-08-01T05:03:19.602Z,24.10
2022-08-01T05:07:21.409Z,24.20
2022-08-01T05:11:23.198Z,24.20
2022-08-01T05:15:26.117Z,24.40
2022-08-01T05:19:27.888Z,24.10
2022-08-01T05:23:42.540Z,24.20
2022-08-01T05:27:45.234Z,24.10
2022-08-01T05:31:46.985Z,24.20
2022-08-01T05:35:49.452Z,24.60
2022-08-01T05:39:51.310Z,23.80
2022-08-01T05:43:53.075Z,23.90
2022-08-01T05:47:54.862Z,24.00
2022-08-01T05:51:56.646Z,23.80
2022-08-01T05:55:58.354Z,23.80
2022-08-01T06:00:00.054Z,24.20
2022-08-01T06:04:01.816Z,24.20
2022-08-01T06:08:04.073Z,24.40
2022-08-01T06:12:06.675Z,24.60
2022-08-01T06:16:08.735Z,24.70
2022-08-01T06:20:11.278Z,23.80
2022-08-01T06:24:12.991Z,23.80
2022-08-01T06:28:16.048Z,24.30
2022-08-01T06:32:20.182Z,24.60
2022-08-01T06:36:29.107Z,24.40
2022-08-01T06:40:31.005Z,24.70
2022-08-01T06:44:32.721Z,24.90
2022-08-01T06:48:36.303Z,25.00
2022-08-01T06:52:38.766Z,24.60
2022-08-01T06:56:40.539Z,24.80
2022-08-01T07:00:43.269Z,24.80
2022-08-01T07:04:45.287Z,24.90
2022-08-01T07:08:47.061Z,25.00
2022-08-01T07:12:48.787Z,24.80
2022-08-01T07:16:51.566Z,24.20
2022-08-01T07:20:53.498Z,24.10
2022-08-01T07:24:55.255Z,25.00
2022-08-01T07:28:56.997Z,25.40
2022-08-01T07:32:58.822Z,25.90
2022-08-01T07:37:00.597Z,25.90
2022-08-01T07:41:03.457Z,25.90
2022-08-01T07:45:05.580Z,25.70
2022-08-01T07:49:07.370Z,25.60
2022-08-01T07:53:11.208Z,26.10
2022-08-01T07:57:12.934Z,26.00
2022-08-01T08:01:14.768Z,26.00
2022-08-01T08:05:16.557Z,25.60
2022-08-01T08:09:38.309Z,25.70
2022-08-01T08:13:40.177Z,25.30
2022-08-01T08:17:41.857Z,25.30
2022-08-01T08:21:43.898Z,25.90
2022-08-01T08:25:45.639Z,25.60
2022-08-01T08:29:47.542Z,25.90
2022-08-01T08:33:49.509Z,25.40
2022-08-01T08:37:51.540Z,26.00
2022-08-01T08:42:00.425Z,26.40
2022-08-01T08:46:02.667Z,26.00
2022-08-01T08:50:05.203Z,25.80
2022-08-01T08:54:08.343Z,25.40
2022-08-01T08:58:17.466Z,25.60
2022-08-01T09:02:19.411Z,25.50
2022-08-01T09:06:21.369Z,25.00
2022-08-01T09:10:23.526Z,25.80
2022-08-01T09:14:31.622Z,25.70
2022-08-01T09:18:40.425Z,25.60
2022-08-01T09:22:47.474Z,25.80
2022-08-01T09:26:51.565Z,25.90
2022-08-01T09:30:53.385Z,25.30
2022-08-01T09:34:55.191Z,25.80
2022-08-01T09:39:14.083Z,26.50
2022-08-01T09:43:15.902Z,26.50
2022-08-01T09:47:19.869Z,26.50
2022-08-01T09:51:59.327Z,26.70
2022-08-01T09:56:11.888Z,26.90
2022-08-01T10:00:35.753Z,27.00
2022-08-01T10:04:50.811Z,26.40
2022-08-01T10:08:52.722Z,26.90
2022-08-01T10:12:56.712Z,26.50
2022-08-01T10:17:05.086Z,26.60
2022-08-01T10:21:08.843Z,27.00
2022-08-01T10:25:17.285Z,26.40
2022-08-01T10:30:05.189Z,26.80
2022-08-01T10:34:10.229Z,26.80
2022-08-01T10:38:15.886Z,27.20
2022-08-01T10:42:19.646Z,27.30
2022-08-01T10:46:21.423Z,27.50
2022-08-01T10:50:32.750Z,28.30
2022-08-01T10:54:52.488Z,27.20
2022-08-01T10:59:06.747Z,26.90
2022-08-01T11:03:13.770Z,27.70
2022-08-01T11:07:25.696Z,28.40
2022-08-01T11:11:28.789Z,28.60
2022-08-01T11:15:50.018Z,27.40
2022-08-01T11:20:14.407Z,26.90
2022-08-01T11:24:16.638Z,26.40
2022-08-01T11:28:29.110Z,26.90
2022-08-01T11:32:38.603Z,26.40
2022-08-01T11:37:30.677Z,26.50
2022-08-01T11:41:37.270Z,27.40
2022-08-01T11:45:49.168Z,27.30
2022-08-01T11:49:57.210Z,27.30
2022-08-01T11:53:59.937Z,27.20
2022-08-01T11:58:08.963Z,27.10
2022-08-01T12:02:31.124Z,27.10
2022-08-01T12:06:32.917Z,27.60
2022-08-01T12:10:49.526Z,27.90
2022-08-01T12:15:01.204Z,28.00
2022-08-01T12:19:03.333Z,27.60
2022-08-01T12:23:09.529Z,28.40
2022-08-01T12:27:13.336Z,28.70
2022-08-01T12:31:15.253Z,29.10
2022-08-01T12:35:28.410Z,28.70
2022-08-01T12:39:32.768Z,29.00
2022-08-01T12:43:35.513Z,28.30
2022-08-01T12:47:39.274Z,27.40
2022-08-01T12:51:41.393Z,27.70
2022-08-01T12:55:58.333Z,27.70
2022-08-01T13:00:14.274Z,28.00
2022-08-01T13:04:16.252Z,27.70
2022-08-01T13:08:31.377Z,28.70
2022-08-01T13:12:33.286Z,28.80
2022-08-01T13:16:56.823Z,28.90
2022-08-01T13:21:19.546Z,28.10
2022-08-01T13:25:23.436Z,28.00
2022-08-01T13:29:34.959Z,28.90
2022-08-01T13:33:42.736Z,29.40
2022-08-01T13:37:44.551Z,29.40
2022-08-01T13:41:47.154Z,29.20
2022-08-01T13:45:48.895Z,28.40
2022-08-01T13:49:52.195Z,28.50
2022-08-01T13:53:54.107Z,28.30
2022-08-01T13:57:55.881Z,28.40
2022-08-01T14:01:57.676Z,27.90
2022-08-01T14:05:59.461Z,28.20
2022-08-01T14:10:17.793Z,28.40
2022-08-01T14:14:21.947Z,28.60
2022-08-01T14:18:23.974Z,28.00
2022-08-01T14:22:27.819Z,28.70
2022-08-01T14:26:29.683Z,29.30
2022-08-01T14:30:31.514Z,29.30
2022-08-01T14:34:33.281Z,28.80
2022-08-01T14:38:35.101Z,29.50
2022-08-01T14:42:38.297Z,29.30
2022-08-01T14:46:57.375Z,29.50
2022-08-01T14:51:03.639Z,29.60
2022-08-01T14:55:07.561Z,29.00
2022-08-01T15:03:25.035Z,28.90
2022-08-01T15:07:37.015Z,28.90
2022-08-01T15:11:42.191Z,28.80
2022-08-01T15:15:43.961Z,29.00
2022-08-01T15:19:47.767Z,29.30
2022-08-01T15:23:49.678Z,29.80
2022-08-01T15:27:51.575Z,29.90
2022-08-01T15:31:53.365Z,29.90
2022-08-01T15:35:55.142Z,29.80
2022-08-01T15:39:56.931Z,29.90
2022-08-01T15:43:58.789Z,29.90
2022-08-01T15:48:08.107Z,30.20
2022-08-01T15:52:22.177Z,30.50
2022-08-01T15:56:29.081Z,30.10
2022-08-01T16:00:38.657Z,29.80
2022-08-01T16:04:49.243Z,29.90
2022-08-01T16:08:51.901Z,29.50
2022-08-01T16:12:53.753Z,29.50
2022-08-01T16:16:55.558Z,29.90
2022-08-01T16:20:58.904Z,29.70
2022-08-01T16:25:04.204Z,29.50
2022-08-01T16:29:06.080Z,29.30
2022-08-01T16:33:40.421Z,29.50
2022-08-01T16:37:30.144Z,28.80
2022-08-01T16:41:31.898Z,28.30
2022-08-01T16:45:42.615Z,28.90
2022-08-01T16:49:44.660Z,29.30
2022-08-01T16:53:46.420Z,29.20
2022-08-01T16:57:48.188Z,29.30
2022-08-01T17:02:00.399Z,29.00
2022-08-01T17:06:45.506Z,29.00
2022-08-01T17:10:48.598Z,28.40
2022-08-01T17:14:51.191Z,27.10
2022-08-01T17:18:53.454Z,26.70
2022-08-01T17:22:56.229Z,25.30
2022-08-01T17:27:05.050Z,25.80
2022-08-01T17:31:09.399Z,25.80
2022-08-01T17:35:26.139Z,25.20
2022-08-01T17:39:35.160Z,24.40
2022-08-01T17:43:44.286Z,24.40
2022-08-01T17:47:50.898Z,24.70
2022-08-01T17:52:03.224Z,24.80
2022-08-01T17:56:06.025Z,25.50
2022-08-01T18:00:09.714Z,26.00
2022-08-01T18:04:12.434Z,25.70
2022-08-01T18:08:14.368Z,26.00
2022-08-01T18:12:19.493Z,25.30
2022-08-01T18:16:21.289Z,25.20
2022-08-01T18:20:23.265Z,25.90
2022-08-01T18:24:25.404Z,25.80
2022-08-01T18:28:32.875Z,26.00
2022-08-01T18:32:38.492Z,25.80
2022-08-01T18:36:40.378Z,25.90
2022-08-01T18:40:42.814Z,25.90
2022-08-01T18:44:44.595Z,26.00
2022-08-01T18:48:46.511Z,26.00
2022-08-01T18:52:51.274Z,25.90
2022-08-01T18:56:53.614Z,25.60
2022-08-01T19:00:55.401Z,25.70
2022-08-01T19:04:57.295Z,25.90
2022-08-01T19:09:02.471Z,24.80
2022-08-01T19:13:07.880Z,24.20
2022-08-01T19:17:09.780Z,23.90
2022-08-01T19:21:14.336Z,24.30
2022-08-01T19:25:16.177Z,24.40
2022-08-01T19:29:22.047Z,24.80
2022-08-01T19:33:24.770Z,25.20
2022-08-01T19:37:27.507Z,25.20
2022-08-01T19:45:50.077Z,25.30
2022-08-01T19:50:00.109Z,25.50
2022-08-01T19:54:06.252Z,25.70
2022-08-01T19:58:26.303Z,25.70
2022-08-01T20:02:31.119Z,25.60
2022-08-01T20:06:40.897Z,25.40
2022-08-01T20:10:42.854Z,25.50
2022-08-01T20:14:44.953Z,25.00
2022-08-01T20:18:46.920Z,25.30
2022-08-01T20:22:49.599Z,25.50
2022-08-01T20:27:03.821Z,25.50
2022-08-01T20:31:08.982Z,25.40
2022-08-01T20:35:18.921Z,25.20
2022-08-01T20:39:43.840Z,25.10
2022-08-01T20:43:46.947Z,24.00
2022-08-01T20:47:50.401Z,24.60
2022-08-01T20:52:02.022Z,24.40
2022-08-01T20:56:30.376Z,24.20
2022-08-01T21:00:33.280Z,23.60
2022-08-01T21:05:08.643Z,23.40
2022-08-01T21:09:16.530Z,23.10
2022-08-01T21:13:32.035Z,23.20
2022-08-01T21:17:50.762Z,24.20
2022-08-01T21:22:17.638Z,24.70
2022-08-01T21:26:34.668Z,24.30
2022-08-01T21:30:36.862Z,24.50
2022-08-01T21:34:39.814Z,24.30
2022-08-01T21:38:45.249Z,24.50
2022-08-01T21:42:48.781Z,24.80
2022-08-01T21:46:52.376Z,25.00
2022-08-01T21:51:20.608Z,24.20
2022-08-01T21:55:35.638Z,23.80
2022-08-01T21:59:56.207Z,23.70
2022-08-01T22:04:02.650Z,23.50
2022-08-01T22:08:10.664Z,23.60
2022-08-01T22:12:17.883Z,24.00
2022-08-01T22:16:20.294Z,24.40
2022-08-01T22:20:24.154Z,24.40
2022-08-01T22:24:26.373Z,24.50
2022-08-01T22:28:33.385Z,24.40
2022-08-01T22:32:38.109Z,24.10
2022-08-01T22:36:39.932Z,23.70
2022-08-01T22:40:53.399Z,22.10
2022-08-01T22:45:05.677Z,22.30
2022-08-01T22:50:02.151Z,22.70
2022-08-01T22:54:05.380Z,23.10
2022-08-01T23:02:30.716Z,23.30
2022-08-01T23:06:43.002Z,22.90
2022-08-01T23:10:45.837Z,22.90
2022-08-01T23:14:51.163Z,23.20
2022-08-01T23:18:57.515Z,23.60
2022-08-01T23:23:02.085Z,23.80
2022-08-01T23:27:23.339Z,23.90
2022-08-01T23:32:00.599Z,23.20
2022-08-01T23:36:05.974Z,22.70
2022-08-01T23:40:08.417Z,23.10
2022-08-01T23:44:10.277Z,23.40
2022-08-01T23:48:12.196Z,23.40
2022-08-01T23:52:14.027Z,23.50
2022-08-01T23:56:25.348Z,23.40
